Time;durP1;ratioP1;P1;durP2;ratioP2;P2;SDS_P1;SDS_P2;PMS_P1;PMS_P2;Temp;Humidity;BMP_temperature;BMP_pressure;BME280_temperature;BME280_humidity;BME280_pressure;Samples;Min_cycle;Max_cycle;Signal;HPM_P1;HPM_P2
2023/10/02 00:01:45;;;;;;;20.17;8.15;;;12.90;99.90;;;;;;5033951;28;20379;-69
2023/10/02 00:04:16;;;;;;;18.30;8.97;;;12.90;99.90;;;;;;5033923;28;20022;-69
2023/10/02 00:06:43;;;;;;;16.45;8.73;;;12.80;99.90;;;;;;5033831;28;20048;-69
2023/10/02 00:09:09;;;;;;;18.70;9.70;;;12.80;99.90;;;;;;5034057;28;20041;-69
2023/10/02 00:11:39;;;;;;;17.88;8.95;;;12.80;99.90;;;;;;5033678;28;20028;-69
2023/10/02 00:14:19;;;;;;;19.55;10.13;;;12.80;99.90;;;;;;5032813;28;20467;-69
2023/10/02 00:17:05;;;;;;;;;;;12.80;99.90;;;;;;5033920;28;20041;-67
2023/10/02 00:19:37;;;;;;;16.20;8.23;;;12.70;99.90;;;;;;5033197;28;19949;-67
2023/10/02 00:22:34;;;;;;;15.85;9.02;;;12.70;99.90;;;;;;5034426;28;20044;-67
2023/10/02 00:25:07;;;;;;;17.77;9.30;;;12.60;99.90;;;;;;5033161;28;20040;-67
2023/10/02 00:27:34;;;;;;;16.92;8.77;;;12.50;99.90;;;;;;5033483;28;20044;-67
2023/10/02 00:30:00;;;;;;;15.95;8.48;;;12.50;99.90;;;;;;5033470;28;20092;-69
2023/10/02 00:32:29;;;;;;;21.10;8.93;;;12.50;99.90;;;;;;5042922;28;20033;-69
2023/10/02 00:34:55;;;;;;;15.20;7.82;;;12.40;99.90;;;;;;5033012;28;20489;-69
2023/10/02 00:37:21;;;;;;;18.40;9.20;;;12.40;99.90;;;;;;5034147;28;20041;-69
2023/10/02 00:39:52;;;;;;;16.65;8.82;;;12.40;99.90;;;;;;5032664;28;20013;-69
2023/10/02 00:42:25;;;;;;;17.70;8.48;;;12.40;99.90;;;;;;5034209;28;20113;-67
2023/10/02 00:44:52;;;;;;;17.02;8.85;;;12.40;99.90;;;;;;5032447;28;20033;-67
2023/10/02 00:47:41;;;;;;;17.02;8.93;;;12.40;99.90;;;;;;5033036;28;20513;-67
2023/10/02 00:50:27;;;;;;;16.98;8.63;;;12.40;99.90;;;;;;5033380;28;20071;-67
2023/10/02 00:52:55;;;;;;;18.48;9.35;;;12.40;99.90;;;;;;5033076;28;20045;-67
2023/10/02 00:55:24;;;;;;;17.38;8.73;;;12.40;99.90;;;;;;5033201;28;20022;-67
2023/10/02 00:57:52;;;;;;;18.25;9.43;;;12.40;99.90;;;;;;5032973;28;20071;-67
2023/10/02 01:00:21;;;;;;;18.25;9.35;;;12.40;99.90;;;;;;5032861;28;20390;-67
2023/10/02 01:02:57;;;;;;;17.60;8.82;;;12.40;99.90;;;;;;5032624;28;20021;-69
2023/10/02 01:05:30;;;;;;;21.55;9.75;;;12.40;99.90;;;;;;5033061;28;20087;-67
2023/10/02 01:07:57;;;;;;;19.13;8.95;;;12.30;99.90;;;;;;5033626;28;20029;-67
2023/10/02 01:10:29;;;;;;;19.48;8.88;;;12.40;99.90;;;;;;5032684;28;20108;-67
2023/10/02 01:13:01;;;;;;;16.88;8.93;;;12.30;99.90;;;;;;5033466;28;20519;-67
2023/10/02 01:15:28;;;;;;;19.52;8.95;;;12.30;99.90;;;;;;5032646;28;20083;-67
2023/10/02 01:18:21;;;;;;;17.15;8.95;;;12.30;99.90;;;;;;5033125;28;20047;-67
2023/10/02 01:20:48;;;;;;;15.38;8.30;;;;;;;;;;5031428;28;20030;-67
2023/10/02 01:23:16;;;;;;;20.83;10.13;;;;;;;;;;5033290;28;20112;-67
2023/10/02 01:25:44;;;;;;;16.23;8.75;;;;;;;;;;5031863;28;20030;-67
2023/10/02 01:28:13;;;;;;;15.75;7.95;;;;;;;;;;5032740;28;20030;-67
2023/10/02 01:30:40;;;;;;;19.27;9.48;;;;;;;;;;5037074;28;20036;-67
2023/10/02 01:33:17;;;;;;;19.85;9.05;;;;;;;;;;5037167;28;20025;-67
2023/10/02 01:35:48;;;;;;;18.42;9.27;;;;;;;;;;5031563;28;20147;-67
2023/10/02 01:38:15;;;;;;;20.77;9.18;;;;;;;;;;5032380;28;20430;-67
2023/10/02 01:40:42;;;;;;;19.75;9.15;;;;;;;;;;5031535;28;20021;-67
2023/10/02 01:43:14;;;;;;;21.45;9.48;;;;;;;;;;5032785;28;20030;-68
2023/10/02 01:45:44;;;;;;;15.35;9.07;;;;;;;;;;5031376;28;20466;-67
2023/10/02 01:48:13;;;;;;;18.25;9.13;;;;;;;;;;5031910;28;20102;-67
2023/10/02 01:50:39;;;;;;;22.23;10.50;;;;;;;;;;5031414;28;20037;-67
2023/10/02 01:53:05;;;;;;;17.35;9.20;;;;;;;;;;5032562;28;20014;-69
2023/10/02 01:55:35;;;;;;;17.00;8.43;;;;;;;;;;5031104;28;20018;-67
2023/10/02 01:58:16;;;;;;;18.30;8.90;;;;;;;;;;5032181;28;20025;-67
2023/10/02 02:00:42;;;;;;;17.30;8.60;;;;;;;;;;5031145;28;20021;-69
2023/10/02 02:03:14;;;;;;;17.15;8.10;;;;;;;;;;5032258;28;20029;-67
2023/10/02 02:05:44;;;;;;;17.05;8.20;;;;;;;;;;5030906;28;20037;-67
2023/10/02 02:08:22;;;;;;;17.95;8.88;;;;;;;;;;5032329;28;20034;-67
2023/10/02 02:10:50;;;;;;;15.52;8.27;;;;;;;;;;5031062;28;20028;-67
2023/10/02 02:13:16;;;;;;;19.20;9.60;;;;;;;;;;5032287;28;20026;-67
2023/10/02 02:15:47;;;;;;;19.50;9.75;;;;;;;;;;5030642;28;20013;-67
2023/10/02 02:18:14;;;;;;;;;;;;;;;;;;5032438;28;20026;-67
2023/10/02 02:20:58;;;;;;;18.55;9.13;;;;;;;;;;5030925;28;19909;-68
2023/10/02 02:23:26;;;;;;;23.73;9.27;;;;;;;;;;5032218;28;20112;-67
2023/10/02 02:25:52;;;;;;;20.25;9.43;;;;;;;;;;5031418;28;20028;-67
2023/10/02 02:28:18;;;;;;;17.80;9.05;;;;;;;;;;5032088;28;20040;-67
2023/10/02 02:30:44;;;;;;;20.25;9.20;;;;;;;;;;5036652;28;20017;-67
2023/10/02 02:33:12;;;;;;;17.80;8.93;;;;;;;;;;5035497;28;20021;-70
2023/10/02 02:35:44;;;;;;;17.92;8.82;;;;;;;;;;5030783;28;20040;-68
2023/10/02 02:38:16;;;;;;;17.20;8.48;;;;;;;;;;5031626;28;20026;-68
2023/10/02 02:40:42;;;;;;;17.90;8.00;;;;;;;;;;5031108;28;20037;-67
2023/10/02 02:43:19;;;;;;;17.73;8.48;;;;;;;;;;5031614;28;20446;-67
2023/10/02 02:45:45;;;;;;;18.38;9.52;;;;;;;;;;5030740;28;20029;-67
2023/10/02 02:48:12;;;;;;;15.43;8.30;;;;;;;;;;5031079;28;20050;-67
2023/10/02 02:50:40;;;;;;;19.33;9.05;;;;;;;;;;5030648;28;20049;-68
2023/10/02 02:53:23;;;;;;;19.88;8.90;;;;;;;;;;5031408;28;20053;-68
2023/10/02 02:56:14;;;;;;;18.83;9.45;;;;;;;;;;5030561;28;20020;-68
2023/10/02 02:58:40;;;;;;;19.80;9.18;;;;;;;;;;5030668;28;20038;-68
2023/10/02 03:01:12;;;;;;;19.20;9.50;;;;;;;;;;5031771;28;20076;-67
2023/10/02 03:03:41;;;;;;;18.17;8.88;;;;;;;;;;5030232;28;20021;-68
2023/10/02 03:06:14;;;;;;;17.98;9.27;;;;;;;;;;5031669;28;20108;-68
2023/10/02 03:08:41;;;;;;;19.80;9.63;;;;;;;;;;5031277;28;20120;-68
2023/10/02 03:11:07;;;;;;;18.27;8.70;;;;;;;;;;5035437;28;20017;-67
2023/10/02 03:13:35;;;;;;;19.23;9.35;;;;;;;;;;5033864;28;20026;-68
2023/10/02 03:16:12;;;;;;;18.13;9.32;;;;;;;;;;5035725;28;20030;-67
2023/10/02 03:18:43;;;;;;;17.05;9.05;;;11.80;99.90;;;;;;5034153;28;20022;-68
2023/10/02 03:21:24;;;;;;;19.30;8.82;;;11.70;99.90;;;;;;5035612;28;20029;-68
2023/10/02 03:24:07;;;;;;;18.52;9.35;;;;;;;;;;5033614;28;20814;-68
2023/10/02 03:29:21;;;;;;;16.55;8.40;;;;;;;;;;5034828;28;20128;-67
2023/10/02 03:31:51;;;;;;;19.17;9.93;;;;;;;;;;5044493;28;20024;-67
2023/10/02 03:34:33;;;;;;;18.67;9.52;;;;;;;;;;5034456;28;20029;-68
2023/10/02 03:37:08;;;;;;;19.10;9.20;;;;;;;;;;5035388;28;20029;-68
2023/10/02 03:40:14;;;;;;;17.98;9.05;;;;;;;;;;5034076;28;20033;-68
2023/10/02 03:42:30;;;;;;;17.17;8.45;;;;;;;;;;5035291;28;20030;-68
2023/10/02 03:44:56;;;;;;;20.75;9.10;;;;;;;;;;5034550;28;20025;-68
2023/10/02 03:47:23;;;;;;;16.83;9.07;;;;;;;;;;5034415;28;20057;-68
2023/10/02 03:49:50;;;;;;;19.20;9.52;;;;;;;;;;5033265;28;20898;-67
2023/10/02 03:52:17;;;;;;;18.80;9.98;;;;;;;;;;5034914;28;20025;-67
2023/10/02 03:54:44;;;;;;;19.02;10.02;;;;;;;;;;5033408;28;20014;-68
2023/10/02 03:57:37;;;;;;;19.95;9.43;;;;;;;;;;5034626;28;20436;-68
2023/10/02 03:59:57;;;;;;;21.52;9.88;;;;;;;;;;5033894;28;20025;-68
2023/10/02 04:02:26;;;;;;;18.63;9.02;;;;;;;;;;5034617;28;20433;-68
2023/10/02 04:04:52;;;;;;;18.58;9.07;;;;;;;;;;5033656;28;20036;-68
2023/10/02 04:07:18;;;;;;;17.40;9.25;;;;;;;;;;5034228;28;20033;-68
2023/10/02 04:09:49;;;;;;;17.73;9.85;;;;;;;;;;5033142;28;20436;-68
2023/10/02 04:12:17;;;;;;;22.05;10.02;;;;;;;;;;5034386;28;20022;-67
2023/10/02 04:14:43;;;;;;;20.45;9.80;;;;;;;;;;5033249;28;20022;-68
2023/10/02 04:19:56;;;;;;;19.45;10.52;;;;;;;;;;5032687;28;20038;-68
2023/10/02 04:22:22;;;;;;;20.27;10.02;;;;;;;;;;5021770;28;20075;-68
2023/10/02 04:24:59;;;;;;;18.48;9.07;;;;;;;;;;5032965;28;20299;-68
2023/10/02 04:30:21;;;;;;;19.25;10.27;;;;;;;;;;5034895;28;20025;-67
2023/10/02 04:32:59;;;;;;;22.88;10.25;;;;;;;;;;5040186;28;20634;-68
2023/10/02 04:35:44;;;;;;;20.50;9.43;;;;;;;;;;5033512;28;20018;-67
2023/10/02 04:38:14;;;;;;;20.85;10.18;;;;;;;;;;5033763;28;20045;-67
2023/10/02 04:40:49;;;;;;;20.55;10.75;;;;;;;;;;5032665;28;20083;-68
2023/10/02 04:45:45;;;;;;;17.15;9.55;;;;;;;;;;5032634;28;20113;-68
2023/10/02 04:48:12;;;;;;;22.23;9.60;;;;;;;;;;5032793;28;20518;-68
2023/10/02 04:50:45;;;;;;;24.30;10.18;;;11.20;99.90;;;;;;5032229;28;20025;-68
2023/10/02 04:53:19;;;;;;;20.40;10.23;;;11.20;99.90;;;;;;5033691;28;20021;-68
2023/10/02 04:55:48;;;;;;;20.42;10.38;;;11.20;99.90;;;;;;5032297;28;20737;-68
2023/10/02 04:58:20;;;;;;;22.05;10.18;;;11.20;99.90;;;;;;5033525;28;20108;-68
2023/10/02 05:03:29;;;;;;;20.38;10.38;;;11.10;99.90;;;;;;5032545;28;20037;-68
2023/10/02 05:05:59;;;;;;;21.30;10.48;;;11.10;99.90;;;;;;5033056;28;20022;-68
2023/10/02 05:11:06;;;;;;;21.27;10.77;;;11.00;99.90;;;;;;5033450;28;20030;-68
2023/10/02 05:16:33;;;;;;;24.63;10.55;;;11.10;99.90;;;;;;5033355;28;20505;-68
2023/10/02 05:19:06;;;;;;;19.58;10.82;;;11.10;99.90;;;;;;5032619;28;20164;-68
2023/10/02 05:21:36;;;;;;;21.05;10.20;;;11.10;99.90;;;;;;5032173;28;20034;-68
2023/10/02 05:24:11;;;;;;;22.87;10.10;;;11.00;99.90;;;;;;5032221;28;20033;-68
2023/10/02 05:26:39;;;;;;;22.23;11.23;;;11.00;99.90;;;;;;5030254;28;20033;-68
2023/10/02 05:29:07;;;;;;;24.40;11.02;;;11.00;99.90;;;;;;5032396;28;20501;-68
2023/10/02 05:31:36;;;;;;;22.35;10.55;;;11.00;99.90;;;;;;5041419;28;20108;-68
2023/10/02 05:34:21;;;;;;;21.30;10.47;;;11.00;99.90;;;;;;5032392;28;20022;-68
2023/10/02 05:39:50;;;;;;;19.40;9.45;;;11.00;99.90;;;;;;5026212;28;20061;-69
2023/10/02 05:42:16;;;;;;;22.33;10.82;;;11.00;99.90;;;;;;5032448;28;20044;-68
2023/10/02 05:44:45;;;;;;;25.85;10.45;;;10.90;99.90;;;;;;5031323;28;20096;-69
2023/10/02 05:47:15;;;;;;;26.90;12.35;;;11.00;99.90;;;;;;5032361;28;20041;-68
2023/10/02 05:49:47;;;;;;;;;;;11.00;99.90;;;;;;5031502;28;20022;-68
2023/10/02 05:52:14;;;;;;;21.52;11.27;;;11.00;99.90;;;;;;5031928;28;19936;-68
2023/10/02 05:54:47;;;;;;;29.83;12.23;;;11.00;99.90;;;;;;5030880;28;20026;-70
2023/10/02 05:57:13;;;;;;;26.65;11.35;;;11.00;99.90;;;;;;5031835;28;20102;-69
2023/10/02 05:59:44;;;;;;;25.80;11.77;;;11.10;99.90;;;;;;5030592;28;20033;-70
2023/10/02 06:02:11;;;;;;;25.27;11.77;;;11.10;99.90;;;;;;5031669;28;20545;-67
2023/10/02 06:04:37;;;;;;;25.60;12.52;;;11.10;99.90;;;;;;5030665;28;20040;-68
2023/10/02 06:07:03;;;;;;;28.42;12.40;;;11.10;99.90;;;;;;5032059;28;20033;-68
2023/10/02 06:09:43;;;;;;;26.35;13.20;;;11.10;99.90;;;;;;5030999;28;20382;-68
2023/10/02 06:12:13;;;;;;;31.48;13.80;;;11.20;99.90;;;;;;5032163;28;20029;-67
2023/10/02 06:14:43;;;;;;;31.30;14.68;;;11.20;99.90;;;;;;5030741;28;20025;-68
2023/10/02 06:17:13;;;;;;;39.00;15.90;;;11.20;99.90;;;;;;5029423;28;20172;-68
2023/10/02 06:19:42;;;;;;;37.07;15.87;;;11.30;99.90;;;;;;5030529;28;20060;-68
2023/10/02 06:22:13;;;;;;;31.23;13.95;;;11.40;99.90;;;;;;5030972;28;20029;-67
2023/10/02 06:24:42;;;;;;;27.50;12.10;;;11.50;99.90;;;;;;5030568;28;20379;-67
2023/10/02 06:27:16;;;;;;;33.10;12.52;;;11.60;99.90;;;;;;5031627;28;20029;-67
2023/10/02 06:29:47;;;;;;;29.33;13.52;;;11.80;99.90;;;;;;5030434;28;20033;-67
2023/10/02 06:32:19;;;;;;;28.70;14.60;;;11.90;99.90;;;;;;5042473;28;20036;-67
2023/10/02 06:34:47;;;;;;;29.90;14.50;;;12.00;99.90;;;;;;5030181;28;20037;-68
2023/10/02 06:37:17;;;;;;;27.75;14.38;;;12.20;99.90;;;;;;5031723;28;20494;-68
2023/10/02 06:40:03;;;;;;;28.40;14.63;;;12.30;99.90;;;;;;5029904;28;20017;-68
2023/10/02 06:42:30;;;;;;;35.90;17.38;;;12.40;99.90;;;;;;5030845;28;20029;-67
2023/10/02 06:45:01;;;;;;;37.03;18.33;;;12.50;99.90;;;;;;5031085;28;20029;-68
2023/10/02 06:47:31;;;;;;;;;;;12.70;99.90;;;;;;5030909;28;20054;-67
2023/10/02 06:50:25;;;;;;;43.97;20.98;;;12.80;99.90;;;;;;5025981;28;19992;-67
2023/10/02 06:52:51;;;;;;;43.00;20.00;;;12.90;99.90;;;;;;5031003;28;20029;-67
2023/10/02 06:55:24;;;;;;;38.70;18.63;;;13.10;99.90;;;;;;5030819;28;20029;-68
2023/10/02 06:57:52;;;;;;;35.83;16.42;;;13.20;99.90;;;;;;5030787;28;20037;-68
2023/10/02 07:00:19;;;;;;;32.55;15.80;;;13.30;99.90;;;;;;5029708;28;20021;-68
2023/10/02 07:02:57;;;;;;;33.03;14.45;;;13.40;99.90;;;;;;5030557;28;20047;-68
2023/10/02 07:05:32;;;;;;;32.92;14.20;;;13.60;99.90;;;;;;5030999;28;20025;-68
2023/10/02 07:08:21;;;;;;;30.65;13.88;;;13.70;99.90;;;;;;5031010;28;20394;-68
2023/10/02 07:10:50;;;;;;;28.67;13.20;;;13.80;99.90;;;;;;5030052;28;20099;-68
2023/10/02 07:13:20;;;;;;;24.10;11.35;;;13.90;99.90;;;;;;5031411;28;20368;-68
2023/10/02 07:15:55;;;;;;;26.98;12.93;;;14.00;99.90;;;;;;5029676;28;20029;-67
2023/10/02 07:18:49;;;;;;;26.10;12.63;;;14.10;99.90;;;;;;5030019;28;20200;-67
2023/10/02 07:21:21;;;;;;;22.08;12.35;;;14.30;99.90;;;;;;5031319;28;20095;-68
2023/10/02 07:23:47;;;;;;;24.38;11.23;;;14.50;99.90;;;;;;5033408;28;20627;-67
2023/10/02 07:26:15;;;;;;;22.92;11.55;;;14.60;99.90;;;;;;5030981;28;20113;-67
2023/10/02 07:28:53;;;;;;;24.58;11.13;;;14.70;99.90;;;;;;5029699;28;20034;-67
2023/10/02 07:31:23;;;;;;;26.88;12.13;;;14.70;99.90;;;;;;5040780;28;20029;-67
2023/10/02 07:33:49;;;;;;;23.38;10.95;;;14.80;99.90;;;;;;5029874;28;20101;-67
2023/10/02 07:36:15;;;;;;;24.15;11.43;;;15.10;99.90;;;;;;5030695;28;20083;-66
2023/10/02 07:38:42;;;;;;;22.58;10.57;;;15.20;99.90;;;;;;5030037;28;20045;-67
2023/10/02 07:41:23;;;;;;;21.30;10.88;;;15.30;99.90;;;;;;5030758;28;20071;-67
2023/10/02 07:43:52;;;;;;;30.10;10.90;;;15.30;99.90;;;;;;5029973;28;20100;-67
2023/10/02 07:46:21;;;;;;;20.98;10.93;;;15.40;99.90;;;;;;5030326;28;20025;-67
2023/10/02 07:48:57;;;;;;;27.30;11.15;;;15.60;99.90;;;;;;5029898;28;20036;-67
2023/10/02 07:51:30;;;;;;;20.85;10.60;;;15.70;99.90;;;;;;5031001;28;20462;-67
2023/10/02 07:53:59;;;;;;;23.27;11.70;;;15.90;99.90;;;;;;5030495;28;20037;-67
2023/10/02 07:56:28;;;;;;;22.08;11.43;;;16.00;99.90;;;;;;5034103;28;20032;-67
2023/10/02 07:59:01;;;;;;;23.75;10.55;;;16.10;99.90;;;;;;5034303;28;20037;-67
2023/10/02 08:01:33;;;;;;;21.38;10.90;;;16.20;99.90;;;;;;5034316;28;20022;-67
2023/10/02 08:04:01;;;;;;;24.10;11.27;;;16.30;99.90;;;;;;5034035;28;20025;-67
2023/10/02 08:06:33;;;;;;;23.17;10.98;;;16.50;99.90;;;;;;5033457;28;20479;-67
2023/10/02 08:11:51;;;;;;;23.92;11.05;;;16.80;99.90;;;;;;5033335;28;20625;-67
2023/10/02 08:18:04;;;;;;;22.75;11.02;;;17.10;99.90;;;;;;5032439;28;20037;-67
2023/10/02 08:20:16;;;;;;;23.73;11.18;;;;;;;;;;5030349;28;20042;-67
2023/10/02 08:22:44;;;;;;;23.23;10.65;;;17.60;99.90;;;;;;5033544;28;20097;-67
2023/10/02 08:25:16;;;;;;;27.10;10.70;;;;;;;;;;5033489;28;20047;-67
2023/10/02 08:27:55;;;;;;;25.20;11.38;;;17.90;99.90;;;;;;5033187;28;20025;-67
2023/10/02 08:30:28;;;;;;;22.80;10.88;;;17.90;99.90;;;;;;5036229;28;20100;-67
2023/10/02 08:33:07;;;;;;;18.38;10.00;;;18.00;99.90;;;;;;5040018;28;20043;-67
2023/10/02 08:35:34;;;;;;;18.35;9.98;;;18.10;99.90;;;;;;5032933;28;20036;-67
2023/10/02 08:38:00;;;;;;;20.65;10.35;;;18.10;99.90;;;;;;5033848;28;20040;-67
2023/10/02 08:40:26;;;;;;;22.63;11.10;;;18.30;99.90;;;;;;5033350;28;20030;-67
2023/10/02 08:42:53;;;;;;;24.05;11.00;;;18.40;99.90;;;;;;5033159;28;20032;-67
2023/10/02 08:45:22;;;;;;;21.05;10.30;;;18.60;99.90;;;;;;5033231;28;20030;-67
2023/10/02 08:47:48;;;;;;;20.25;10.73;;;18.70;99.90;;;;;;5032347;28;20049;-67
2023/10/02 08:50:17;;;;;;;24.35;11.45;;;18.80;99.90;;;;;;5033399;28;20112;-67
2023/10/02 08:52:52;;;;;;;18.67;9.85;;;18.90;99.90;;;;;;5032364;28;20041;-67
2023/10/02 08:55:54;;;;;;;19.85;10.57;;;19.00;99.90;;;;;;5033468;28;20036;-67
2023/10/02 08:58:16;;;;;;;23.23;11.23;;;19.10;99.90;;;;;;5033031;28;20042;-67
2023/10/02 09:01:05;;;;;;;20.95;11.20;;;19.20;99.90;;;;;;5032215;28;20091;-67
2023/10/02 09:03:34;;;;;;;20.58;11.98;;;19.30;99.90;;;;;;5032247;28;20100;-67
2023/10/02 09:06:25;;;;;;;34.17;20.63;;;19.30;99.90;;;;;;5032331;28;20049;-67
2023/10/02 09:11:34;;;;;;;22.90;10.73;;;19.50;99.90;;;;;;5032273;28;20122;-67
2023/10/02 09:17:07;;;;;;;22.70;11.10;;;20.00;99.90;;;;;;5028807;28;20513;-67
2023/10/02 09:19:34;;;;;;;20.83;10.07;;;20.10;99.90;;;;;;5032138;28;20455;-67
2023/10/02 09:22:07;;;;;;;24.25;11.38;;;20.20;99.90;;;;;;5032648;28;20129;-67
2023/10/02 09:24:41;;;;;;;20.52;11.13;;;20.30;99.90;;;;;;5031581;28;20536;-68
2023/10/02 09:27:55;;;;;;;25.95;10.90;;;20.40;99.90;;;;;;5032460;28;20032;-67
2023/10/02 09:32:49;;;;;;;20.35;11.30;;;20.60;99.90;;;;;;5038905;28;20114;-67
2023/10/02 09:35:23;;;;;;;20.67;10.75;;;20.70;99.90;;;;;;5032550;28;20430;-67
2023/10/02 09:37:56;;;;;;;20.75;10.45;;;20.80;99.90;;;;;;5031300;28;20033;-67
2023/10/02 09:43:25;;;;;;;21.30;10.80;;;21.00;99.90;;;;;;5032193;28;20119;-67
2023/10/02 09:45:59;;;;;;;22.58;11.52;;;21.10;99.90;;;;;;5031465;28;20033;-67
2023/10/02 09:48:57;;;;;;;27.02;11.65;;;21.30;99.90;;;;;;5031779;28;20053;-67
2023/10/02 09:51:26;;;;;;;25.50;11.18;;;21.60;99.90;;;;;;5032422;28;20026;-67
2023/10/02 09:54:13;;;;;;;22.07;11.03;;;21.70;99.90;;;;;;5031134;28;20033;-67
2023/10/02 09:57:06;;;;;;;20.90;11.40;;;21.80;99.90;;;;;;5020632;28;20029;-67
2023/10/02 09:59:48;;;;;;;18.25;10.10;;;22.00;99.90;;;;;;5031085;28;20057;-67
2023/10/02 10:05:22;;;;;;;23.60;10.65;;;22.20;99.90;;;;;;5031059;28;20030;-67
2023/10/02 10:13:37;;;;;;;23.10;11.15;;;22.80;99.90;;;;;;5032123;28;20029;-67
2023/10/02 10:16:18;;;;;;;23.10;11.63;;;22.90;99.90;;;;;;5021155;28;20163;-67
2023/10/02 10:21:56;;;;;;;26.38;11.93;;;23.10;99.90;;;;;;5031347;28;20037;-68
2023/10/02 10:24:31;;;;;;;24.50;12.35;;;23.30;99.90;;;;;;5031397;28;20440;-68
2023/10/02 10:26:57;;;;;;;23.05;12.07;;;23.40;99.90;;;;;;5031734;28;20046;-67
2023/10/02 10:29:41;;;;;;;23.20;11.15;;;23.50;99.90;;;;;;5028548;28;20547;-67
2023/10/02 10:32:23;;;;;;;21.45;11.95;;;23.50;99.90;;;;;;5039474;28;20087;-67
2023/10/02 10:35:15;;;;;;;21.98;11.48;;;23.60;99.90;;;;;;5030157;28;20719;-67
2023/10/02 10:37:46;;;;;;;22.77;12.18;;;23.70;99.90;;;;;;5030523;28;20029;-68
2023/10/02 10:40:44;;;;;;;22.50;11.85;;;23.90;99.90;;;;;;5031263;28;20356;-67
2023/10/02 10:43:19;;;;;;;27.70;12.95;;;24.00;99.90;;;;;;5031350;28;20029;-68
2023/10/02 10:45:48;;;;;;;24.13;11.95;;;24.10;99.90;;;;;;5030354;28;20029;-68
2023/10/02 10:48:23;;;;;;;24.38;12.35;;;24.20;99.90;;;;;;5018644;28;20463;-68
2023/10/02 10:50:57;;;;;;;25.63;13.82;;;24.30;99.90;;;;;;5030903;28;20357;-67
2023/10/02 10:53:32;;;;;;;35.65;13.95;;;24.50;99.90;;;;;;5033067;28;20387;-68
2023/10/02 10:56:18;;;;;;;26.27;12.80;;;24.60;99.90;;;;;;5031638;28;20021;-68
2023/10/02 10:58:51;;;;;;;24.90;13.45;;;24.70;99.80;;;;;;5027161;28;20125;-68
2023/10/02 11:01:17;;;;;;;23.08;12.82;;;24.80;98.90;;;;;;5030493;28;20041;-68
2023/10/02 11:03:43;;;;;;;27.17;12.98;;;24.90;98.90;;;;;;5032649;28;20028;-67
2023/10/02 11:06:10;;;;;;;26.45;13.63;;;25.00;98.90;;;;;;5037639;28;20702;-68
2023/10/02 11:08:40;;;;;;;25.55;12.27;;;25.10;98.40;;;;;;5033091;28;20045;-67
2023/10/02 11:11:19;;;;;;;25.90;13.13;;;25.20;98.20;;;;;;5036960;28;20425;-67
2023/10/02 11:13:59;;;;;;;24.30;13.55;;;25.20;97.60;;;;;;5034678;28;20018;-68
2023/10/02 11:16:38;;;;;;;25.85;13.65;;;25.20;98.00;;;;;;5033070;28;20035;-68
2023/10/02 11:19:23;;;;;;;25.92;12.95;;;25.30;99.90;;;;;;5034934;28;20690;-68
2023/10/02 11:22:14;;;;;;;26.00;14.75;;;25.50;98.70;;;;;;5033066;28;20516;-70
2023/10/02 11:24:44;;;;;;;27.88;14.63;;;25.60;97.30;;;;;;5030691;28;20032;-70
2023/10/02 11:27:16;;;;;;;31.65;15.35;;;25.70;97.00;;;;;;5032789;28;20025;-68
2023/10/02 11:29:45;;;;;;;28.67;15.00;;;25.80;96.90;;;;;;5030127;28;20034;-70
2023/10/02 11:32:22;;;;;;;28.55;15.75;;;25.90;96.80;;;;;;5048446;28;20497;-70
2023/10/02 11:35:02;;;;;;;28.15;14.77;;;26.00;96.20;;;;;;5049907;28;20017;-69
2023/10/02 11:37:28;;;;;;;28.17;15.10;;;26.20;95.90;;;;;;5030791;28;20126;-69
2023/10/02 11:39:55;;;;;;;30.25;15.13;;;26.50;95.20;;;;;;5049228;28;21307;-70
2023/10/02 11:42:22;;;;;;;26.73;15.00;;;26.70;94.70;;;;;;5050771;28;20386;-69
2023/10/02 11:44:48;;;;;;;31.05;17.02;;;27.00;94.00;;;;;;5036956;28;20025;-70
2023/10/02 11:47:14;;;;;;;35.47;18.02;;;27.30;93.00;;;;;;5026681;28;20053;-70
2023/10/02 11:49:42;;;;;;;29.88;16.20;;;27.60;92.70;;;;;;5034108;28;20043;-70
2023/10/02 11:52:07;;;;;;;26.67;15.45;;;27.90;92.00;;;;;;5034761;28;20021;-69
2023/10/02 11:54:36;;;;;;;35.90;17.30;;;28.10;91.80;;;;;;5033088;28;20109;-70
2023/10/02 11:57:09;;;;;;;31.23;16.80;;;28.30;90.90;;;;;;5034590;28;20505;-70
2023/10/02 11:59:37;;;;;;;32.38;18.23;;;28.60;99.90;;;;;;5032384;28;20030;-70
2023/10/02 12:02:04;;;;;;;31.23;17.75;;;28.80;99.90;;;;;;5034328;28;20051;-70
2023/10/02 12:04:34;;;;;;;39.92;19.23;;;29.10;99.90;;;;;;5032856;28;20029;-70
2023/10/02 12:07:01;;;;;;;37.08;19.95;;;;;;;;;;5034823;28;20422;-70
2023/10/02 12:09:27;;;;;;;33.30;19.45;;;29.60;99.90;;;;;;5033362;28;20034;-70
2023/10/02 12:11:54;;;;;;;35.63;19.65;;;;;;;;;;5034039;28;20033;-70
2023/10/02 12:14:22;;;;;;;35.25;19.70;;;;;;;;;;5033576;28;20028;-70
2023/10/02 12:16:47;;;;;;;32.45;18.60;;;29.80;99.90;;;;;;5032809;28;20026;-70
2023/10/02 12:19:15;;;;;;;33.45;19.42;;;30.20;97.50;;;;;;5033181;28;20029;-70
2023/10/02 12:21:41;;;;;;;34.30;20.00;;;30.50;95.40;;;;;;5032977;28;20026;-70
2023/10/02 12:24:07;;;;;;;37.13;21.40;;;30.70;95.40;;;;;;5033736;28;20044;-70
2023/10/02 12:26:33;;;;;;;34.92;20.70;;;30.80;94.70;;;;;;5033370;28;20522;-70
2023/10/02 12:29:00;;;;;;;32.83;19.75;;;31.10;93.80;;;;;;5033595;28;20025;-70
2023/10/02 12:31:26;;;;;;;32.60;20.25;;;31.10;95.20;;;;;;5043831;28;20059;-70
2023/10/02 12:33:52;;;;;;;37.25;21.23;;;31.20;95.10;;;;;;5033298;28;20433;-70
2023/10/02 12:36:20;;;;;;;39.03;21.38;;;31.40;94.30;;;;;;5033985;28;20026;-70
2023/10/02 12:38:47;;;;;;;34.75;19.75;;;31.80;93.20;;;;;;5032589;28;20029;-70
2023/10/02 12:41:25;;;;;;;34.80;20.77;;;31.90;92.90;;;;;;5033574;28;20378;-70
2023/10/02 12:43:58;;;;;;;38.92;22.40;;;31.90;93.10;;;;;;5032801;28;20030;-70
2023/10/02 12:46:26;;;;;;;41.42;22.25;;;32.20;92.10;;;;;;5032998;28;20079;-70
2023/10/02 12:48:52;;;;;;;37.08;22.30;;;32.20;92.00;;;;;;5032659;28;20099;-70
2023/10/02 12:51:19;;;;;;;37.08;22.00;;;32.20;91.90;;;;;;5033716;28;20514;-70
2023/10/02 12:53:45;;;;;;;35.08;20.67;;;32.20;91.70;;;;;;5032453;28;20037;-70
2023/10/02 12:56:20;;;;;;;36.42;20.48;;;32.30;91.70;;;;;;5033395;28;20079;-70
2023/10/02 12:58:51;;;;;;;33.83;20.33;;;32.20;91.40;;;;;;5032161;28;20761;-70
2023/10/02 13:01:19;;;;;;;37.45;21.00;;;32.20;91.30;;;;;;5030437;28;20030;-70
2023/10/02 13:03:45;;;;;;;37.22;21.08;;;32.30;91.30;;;;;;5032042;28;20462;-70
2023/10/02 13:06:12;;;;;;;36.50;21.23;;;32.40;91.30;;;;;;5033672;28;20068;-70
2023/10/02 13:08:45;;;;;;;38.75;22.05;;;32.30;91.40;;;;;;5031902;28;20033;-70
2023/10/02 13:11:13;;;;;;;37.08;21.75;;;32.20;91.60;;;;;;5033400;28;20079;-70
2023/10/02 13:13:46;;;;;;;38.67;21.80;;;32.10;91.50;;;;;;5031976;28;20060;-70
2023/10/02 13:16:15;;;;;;;37.28;20.42;;;32.10;91.30;;;;;;5032872;28;20087;-70
2023/10/02 13:18:43;;;;;;;36.08;20.83;;;32.20;91.10;;;;;;5031600;28;20094;-70
2023/10/02 13:21:10;;;;;;;37.55;20.33;;;32.30;91.10;;;;;;5032941;28;20099;-70
2023/10/02 13:23:36;;;;;;;37.72;19.60;;;32.30;91.30;;;;;;5031631;28;20025;-70
2023/10/02 13:26:08;;;;;;;36.03;20.05;;;32.40;91.10;;;;;;5032965;28;20058;-70
2023/10/02 13:28:34;;;;;;;36.05;21.52;;;32.20;91.50;;;;;;5031652;28;20040;-70
2023/10/02 13:31:13;;;;;;;36.97;21.73;;;31.80;92.40;;;;;;5041059;28;20048;-70
2023/10/02 13:33:46;;;;;;;34.60;20.48;;;31.50;93.40;;;;;;5031304;28;20025;-70
2023/10/02 13:36:14;;;;;;;39.80;22.73;;;;;;;;;;5032484;28;20037;-70
2023/10/02 13:38:43;;;;;;;37.00;21.02;;;;;;;;;;5031511;28;20516;-70
2023/10/02 13:41:10;;;;;;;39.25;21.50;;;;;;;;;;5032558;28;20025;-70
2023/10/02 13:43:41;;;;;;;39.25;20.92;;;;;;;;;;5031362;28;20087;-70
2023/10/02 13:46:14;;;;;;;42.80;22.52;;;30.60;95.80;;;;;;5032535;28;20025;-70
2023/10/02 13:48:44;;;;;;;43.80;22.60;;;30.70;95.40;;;;;;5031119;28;20132;-70
2023/10/02 13:51:12;;;;;;;35.10;19.88;;;30.80;94.90;;;;;;5032317;28;20029;-70
2023/10/02 13:53:38;;;;;;;39.67;21.75;;;30.80;95.10;;;;;;5029124;28;20033;-71
2023/10/02 13:56:16;;;;;;;39.38;21.20;;;30.80;95.40;;;;;;5030409;28;20556;-70
2023/10/02 13:58:50;;;;;;;37.00;20.90;;;30.90;95.60;;;;;;5031039;28;20038;-70
2023/10/02 14:01:19;;;;;;;42.05;22.27;;;30.90;95.00;;;;;;5032093;28;20391;-70
2023/10/02 14:03:49;;;;;;;36.27;20.67;;;30.90;95.30;;;;;;5030621;28;20435;-70
2023/10/02 14:06:18;;;;;;;39.63;22.02;;;;;;;;;;5031513;28;20032;-70
2023/10/02 14:08:44;;;;;;;36.17;20.83;;;30.80;95.20;;;;;;5030418;28;20434;-70
2023/10/02 14:11:18;;;;;;;39.67;21.17;;;30.80;95.30;;;;;;5032217;28;20056;-70
2023/10/02 14:13:48;;;;;;;37.10;22.10;;;30.90;95.50;;;;;;5030400;28;20025;-70